^^
Datos históricos de la estación: Murcia-Puente Tocinos
Diario Informe para Abril 16, 2021 Unidades:  Ambas    Ingés   Métrico
Diario Semanal Mensual Anual
  Máxima: Mínima: Promedio:
Temperatura: 66.6 °F /  19.2 °C 49.1 °F /  9.5 °C 55.6 °F /  13.1 °C
Punto de rocio: 49.5 °F /  9.7 °C 36.1 °F /  2.3 °C 45.7 °F /  7.6 °C
Humedad: 94% 32.9% 73%
Velocidad viento: 13.5mph /  21.7km/h - 5.4mph /  8.7km/h
Racha viento: 21.9mph /  35.2km/h - -
Viento- - SE
Presión: 30.1 in /  1018.5 hPa 29.9 in /  1012.8 hPa -
Precipitación: 0.09 in /  2.3 mm    
 
 
Tabla de datos para Abril 16, 2021
Hora Temperatura Punto de rocio Presión Viento Velocidad viento Racha viento Humedad Intensidad lluvia(por hora) Nubes
00:04 50.7 °F /  10.4 °C 48.9 °F /  9.4 °C 30in /  1015.9hPa SSO 4.7mph /  7.6km/h 9.2mph /  14.8km/h 93.3% 0in /  0.0mm
00:09 50.7 °F /  10.4 °C 48.9 °F /  9.4 °C 30in /  1015.9hPa Sur 4.7mph /  7.6km/h 9mph /  14.5km/h 93.7% 0in /  0.0mm
00:14 50.7 °F /  10.4 °C 49.1 °F /  9.5 °C 30in /  1015.9hPa SSE 4.7mph /  7.6km/h 6.9mph /  11.1km/h 94% 0in /  0.0mm
00:19 50.9 °F /  10.5 °C 49.3 °F /  9.6 °C 30in /  1015.8hPa Sur 4.7mph /  7.6km/h 7mph /  11.3km/h 94% 0in /  0.0mm
00:24 50.9 °F /  10.5 °C 49.3 °F /  9.6 °C 30in /  1015.8hPa Sur 4.7mph /  7.6km/h 7.4mph /  11.9km/h 94% 0in /  0.0mm
00:29 50.7 °F /  10.4 °C 49.1 °F /  9.5 °C 30in /  1015.9hPa Sur 4.3mph /  7km/h 8.1mph /  13km/h 94% 0in /  0.0mm
00:34 50.7 °F /  10.4 °C 49.1 °F /  9.5 °C 30in /  1015.9hPa Sur 4.3mph /  6.9km/h 8.1mph /  13km/h 94% 0in /  0.0mm
00:39 50.7 °F /  10.4 °C 49.1 °F /  9.5 °C 30in /  1015.9hPa Sur 4.6mph /  7.4km/h 7mph /  11.3km/h 94% 0in /  0.0mm
00:44 50.7 °F /  10.4 °C 49.1 °F /  9.5 °C 30in /  1015.9hPa SSE 4.7mph /  7.6km/h 6.9mph /  11.1km/h 94% 0in /  0.0mm
00:49 50.7 °F /  10.4 °C 49.1 °F /  9.5 °C 30in /  1015.8hPa Sur 4.5mph /  7.2km/h 7mph /  11.3km/h 94% 0in /  0.0mm
00:54 50.7 °F /  10.4 °C 49.1 °F /  9.5 °C 30in /  1015.8hPa SSE 4.3mph /  6.9km/h 7mph /  11.3km/h 94% 0in /  0.0mm
00:59 50.7 °F /  10.4 °C 49.1 °F /  9.5 °C 30in /  1015.8hPa Sur 3.7mph /  6km/h 6.9mph /  11.1km/h 94% 0in /  0.0mm
01:04 50.7 °F /  10.4 °C 49.1 °F /  9.5 °C 30in /  1015.6hPa Sur 3.6mph /  5.8km/h 7mph /  11.3km/h 94% 0in /  0.0mm
01:09 50.7 °F /  10.4 °C 49.1 °F /  9.5 °C 30in /  1015.6hPa Sur 4.5mph /  7.2km/h 7mph /  11.3km/h 94% 0in /  0.0mm
01:14 50.7 °F /  10.4 °C 49.1 °F /  9.5 °C 30in /  1015.7hPa Sur 4.7mph /  7.6km/h 7mph /  11.3km/h 93.8% 0in /  0.0mm
01:19 50.7 °F /  10.4 °C 49.1 °F /  9.5 °C 30in /  1015.7hPa SSO 4.2mph /  6.8km/h 6mph /  9.7km/h 93.9% 0in /  0.0mm
01:24 50.9 °F /  10.5 °C 48.9 °F /  9.4 °C 30in /  1015.7hPa Sur 4mph /  6.5km/h 5.9mph /  9.5km/h 93% 0in /  0.0mm
01:29 50.9 °F /  10.5 °C 48.9 °F /  9.4 °C 30in /  1015.7hPa SSO 3.7mph /  5.9km/h 4.7mph /  7.6km/h 93% 0in /  0.0mm
01:34 51.1 °F /  10.6 °C 49.1 °F /  9.5 °C 30in /  1015.6hPa SSO 3.6mph /  5.8km/h 2.9mph /  4.7km/h 93.2% 0in /  0.0mm
01:39 51.1 °F /  10.6 °C 49.1 °F /  9.5 °C 30in /  1015.6hPa SO 2.4mph /  3.9km/h 3.6mph /  5.8km/h 93% 0in /  0.0mm
01:44 51.1 °F /  10.6 °C 49.1 °F /  9.5 °C 30in /  1015.7hPa SSO 2mph /  3.2km/h 5.2mph /  8.4km/h 93% 0in /  0.0mm
01:49 51.1 °F /  10.6 °C 49.1 °F /  9.5 °C 30in /  1015.7hPa SSO 2.3mph /  3.7km/h 5mph /  8km/h 93% 0in /  0.0mm
01:54 51.3 °F /  10.7 °C 49.3 °F /  9.6 °C 30in /  1015.7hPa Sur 2.4mph /  3.9km/h 6.2mph /  10km/h 93% 0in /  0.0mm
01:59 51.3 °F /  10.7 °C 49.3 °F /  9.6 °C 30in /  1015.7hPa Sur 3.2mph /  5.1km/h 6.2mph /  10km/h 93% 0in /  0.0mm
02:04 51.3 °F /  10.7 °C 49.3 °F /  9.6 °C 30in /  1015.6hPa Sur 3.6mph /  5.8km/h 6.2mph /  10km/h 93% 0in /  0.0mm
02:09 51.4 °F /  10.8 °C 49.5 °F /  9.7 °C 30in /  1015.6hPa Sur 3.6mph /  5.8km/h 6mph /  9.7km/h 93% 0in /  0.0mm
02:14 51.4 °F /  10.8 °C 49.5 °F /  9.7 °C 30in /  1015.6hPa Sur 3.6mph /  5.8km/h 6mph /  9.7km/h 92.7% 0in /  0.0mm
02:19 51.6 °F /  10.9 °C 49.5 °F /  9.7 °C 30in /  1015.6hPa Sur 3.9mph /  6.2km/h 6.9mph /  11.1km/h 92% 0in /  0.0mm
02:24 51.6 °F /  10.9 °C 49.5 °F /  9.7 °C 30in /  1015.6hPa Sur 4mph /  6.5km/h 7mph /  11.3km/h 92% 0in /  0.0mm
02:29 51.6 °F /  10.9 °C 49.5 °F /  9.7 °C 30in /  1015.6hPa Sur 4.3mph /  6.9km/h 7mph /  11.3km/h 92% 0in /  0.0mm
02:34 51.6 °F /  10.9 °C 49.5 °F /  9.7 °C 30in /  1015.4hPa Sur 4.3mph /  6.9km/h 6mph /  9.7km/h 92% 0in /  0.0mm
02:39 51.6 °F /  10.9 °C 49.5 °F /  9.7 °C 30in /  1015.4hPa Sur 4.1mph /  6.6km/h 6mph /  9.7km/h 92% 0in /  0.0mm
02:44 51.6 °F /  10.9 °C 49.5 °F /  9.7 °C 30in /  1015.4hPa SSO 4mph /  6.4km/h 5.2mph /  8.4km/h 92% 0in /  0.0mm
02:49 51.6 °F /  10.9 °C 49.5 °F /  9.7 °C 30in /  1015.4hPa SSO 3.4mph /  5.4km/h 5mph /  8km/h 92% 0in /  0.0mm
02:54 51.6 °F /  10.9 °C 49.5 °F /  9.7 °C 30in /  1015.4hPa SSO 3.1mph /  5km/h 5.8mph /  9.3km/h 92% 0in /  0.0mm
02:59 51.6 °F /  10.9 °C 49.5 °F /  9.7 °C 30in /  1015.4hPa SSO 3.1mph /  5km/h 6mph /  9.7km/h 91.9% 0in /  0.0mm
03:04 51.6 °F /  10.9 °C 49.1 °F /  9.5 °C 30in /  1015.3hPa SSO 3.1mph /  5km/h 5mph /  8km/h 91.1% 0in /  0.0mm
03:09 51.6 °F /  10.9 °C 49.1 °F /  9.5 °C 30in /  1015.3hPa SO 3mph /  4.8km/h 5.2mph /  8.4km/h 91% 0in /  0.0mm
03:14 51.6 °F /  10.9 °C 49.1 °F /  9.5 °C 30in /  1015.3hPa SO 2.9mph /  4.6km/h 5.2mph /  8.4km/h 91% 0in /  0.0mm
03:19 51.6 °F /  10.9 °C 49.1 °F /  9.5 °C 30in /  1015.2hPa SO 3mph /  4.8km/h 5mph /  8km/h 91% 0in /  0.0mm
03:24 51.6 °F /  10.9 °C 49.1 °F /  9.5 °C 30in /  1015.2hPa SO 3.1mph /  5km/h 5mph /  8km/h 91% 0in /  0.0mm
03:29 51.4 °F /  10.8 °C 49.1 °F /  9.5 °C 30in /  1015.2hPa SO 2.7mph /  4.3km/h 5mph /  8km/h 91% 0in /  0.0mm
03:34 51.4 °F /  10.8 °C 48.9 °F /  9.4 °C 30in /  1015.1hPa SSO 2.4mph /  3.9km/h 5mph /  8km/h 91% 0in /  0.0mm
03:39 51.4 °F /  10.8 °C 48.9 °F /  9.4 °C 30in /  1015.1hPa Sur 2.7mph /  4.4km/h 5mph /  8km/h 91% 0in /  0.0mm
03:44 51.4 °F /  10.8 °C 48.9 °F /  9.4 °C 30in /  1015.1hPa SSO 2.9mph /  4.6km/h 5mph /  8km/h 91% 0in /  0.0mm
03:49 51.4 °F /  10.8 °C 49.1 °F /  9.5 °C 30in /  1015.0hPa SSO 2.2mph /  3.5km/h 5mph /  8km/h 91.5% 0in /  0.0mm
03:54 51.4 °F /  10.8 °C 49.1 °F /  9.5 °C 30in /  1015.0hPa SSO 2mph /  3.2km/h 5.2mph /  8.4km/h 91.5% 0in /  0.0mm
03:59 51.4 °F /  10.8 °C 48.9 °F /  9.4 °C 30in /  1015.0hPa SO 2.8mph /  4.5km/h 5.2mph /  8.4km/h 91.1% 0in /  0.0mm
04:04 51.4 °F /  10.8 °C 48.7 °F /  9.3 °C 30in /  1014.9hPa SO 3.1mph /  5km/h 6mph /  9.7km/h 91% 0in /  0.0mm
04:09 51.3 °F /  10.7 °C 48.7 °F /  9.3 °C 30in /  1014.9hPa SSO 3.1mph /  5km/h 4.7mph /  7.6km/h 91% 0in /  0.0mm
04:14 51.3 °F /  10.7 °C 48.7 °F /  9.3 °C 30in /  1014.9hPa SSO 3.1mph /  5km/h 5.2mph /  8.4km/h 91% 0in /  0.0mm
04:19 51.3 °F /  10.7 °C 48.7 °F /  9.3 °C 30in /  1014.9hPa Sur 3.1mph /  5km/h 6.2mph /  10km/h 91% 0in /  0.0mm
04:24 51.3 °F /  10.7 °C 48.7 °F /  9.3 °C 30in /  1014.9hPa SSO 3.1mph /  5km/h 6.9mph /  11.1km/h 91% 0in /  0.0mm
04:29 51.3 °F /  10.7 °C 48.7 °F /  9.3 °C 30in /  1015.0hPa SSO 3.7mph /  5.9km/h 7mph /  11.3km/h 91% 0in /  0.0mm
04:34 51.3 °F /  10.7 °C 48.7 °F /  9.3 °C 30in /  1015.0hPa SSO 4.3mph /  6.9km/h 6.9mph /  11.1km/h 91% 0in /  0.0mm
04:39 51.1 °F /  10.6 °C 48.6 °F /  9.2 °C 30in /  1015.0hPa SSO 4.3mph /  6.9km/h 6.9mph /  11.1km/h 91% 0in /  0.0mm
04:44 51.1 °F /  10.6 °C 48.6 °F /  9.2 °C 30in /  1015.0hPa SO 4.3mph /  6.9km/h 7mph /  11.3km/h 91% 0in /  0.0mm
04:48 50.9 °F /  10.5 °C 48.4 °F /  9.1 °C 30in /  1014.9hPa SO 4mph /  6.5km/h 6.9mph /  11.1km/h 91% 0in /  0.0mm
04:54 50.7 °F /  10.4 °C 48.2 °F /  9 °C 30in /  1014.9hPa SSO 4.1mph /  6.6km/h 7mph /  11.3km/h 91% 0in /  0.0mm
04:59 50.9 °F /  10.5 °C 48.2 °F /  9 °C 30in /  1014.9hPa SSO 4.2mph /  6.8km/h 7mph /  11.3km/h 90.3% 0in /  0.0mm
05:04 51.1 °F /  10.6 °C 48.2 °F /  9 °C 30in /  1014.8hPa SSO 4.3mph /  6.9km/h 7mph /  11.3km/h 90% 0in /  0.0mm
05:09 51.1 °F /  10.6 °C 48.2 °F /  9 °C 30in /  1014.8hPa Sur 4.3mph /  6.9km/h 8.1mph /  13km/h 90% 0in /  0.0mm
05:14 51.1 °F /  10.6 °C 48.4 °F /  9.1 °C 30in /  1014.9hPa SSO 4.3mph /  7km/h 8mph /  12.9km/h 90.3% 0in /  0.0mm
05:19 50.9 °F /  10.5 °C 48.4 °F /  9.1 °C 30in /  1014.9hPa SSO 4.3mph /  6.9km/h 6mph /  9.7km/h 91% 0in /  0.0mm
05:24 50.9 °F /  10.5 °C 48.4 °F /  9.1 °C 30in /  1014.9hPa Sur 4.3mph /  6.9km/h 6mph /  9.7km/h 91% 0in /  0.0mm
05:29 50.9 °F /  10.5 °C 48.4 °F /  9.1 °C 30in /  1014.9hPa Sur 4.1mph /  6.6km/h 6mph /  9.7km/h 91% 0in /  0.0mm
05:34 50.7 °F /  10.4 °C 48.2 °F /  9 °C 30in /  1014.9hPa Sur 4mph /  6.5km/h 6.9mph /  11.1km/h 91% 0in /  0.0mm
05:39 50.5 °F /  10.3 °C 47.8 °F /  8.8 °C 30in /  1014.9hPa Sur 4.2mph /  6.8km/h 7mph /  11.3km/h 91% 0in /  0.0mm
05:44 50.4 °F /  10.2 °C 47.8 °F /  8.8 °C 30in /  1015.0hPa SSO 4.3mph /  6.9km/h 6.9mph /  11.1km/h 91% 0in /  0.0mm
05:49 50.4 °F /  10.2 °C 47.8 °F /  8.8 °C 30in /  1015.0hPa Sur 4.3mph /  6.9km/h 7mph /  11.3km/h 91% 0in /  0.0mm
05:54 50.2 °F /  10.1 °C 47.7 °F /  8.7 °C 30in /  1015.0hPa Sur 4.3mph /  6.9km/h 7mph /  11.3km/h 91% 0in /  0.0mm
05:59 50 °F /  10 °C 47.5 °F /  8.6 °C 30in /  1015.0hPa Sur 4mph /  6.5km/h 8.1mph /  13km/h 91% 0in /  0.0mm
06:04 49.8 °F /  9.9 °C 47.3 °F /  8.5 °C 30in /  1014.9hPa Sur 4mph /  6.5km/h 9mph /  14.5km/h 91% 0in /  0.0mm
06:09 49.6 °F /  9.8 °C 47.1 °F /  8.4 °C 30in /  1014.9hPa Sur 4.9mph /  7.9km/h 8.1mph /  13km/h 91% 0in /  0.0mm
06:14 49.6 °F /  9.8 °C 47.1 °F /  8.4 °C 30in /  1015.0hPa SSO 5.4mph /  8.7km/h 8.1mph /  13km/h 91% 0in /  0.0mm
06:19 49.6 °F /  9.8 °C 46.9 °F /  8.3 °C 30in /  1015.0hPa SSO 5.4mph /  8.7km/h 9mph /  14.5km/h 90.4% 0in /  0.0mm
06:24 49.8 °F /  9.9 °C 46.9 °F /  8.3 °C 30in /  1015.0hPa SSO 5.4mph /  8.7km/h 9.2mph /  14.8km/h 89.8% 0in /  0.0mm
06:29 49.8 °F /  9.9 °C 46.8 °F /  8.2 °C 30in /  1015.0hPa SSO 5.3mph /  8.5km/h 8mph /  12.9km/h 89% 0in /  0.0mm
06:34 49.8 °F /  9.9 °C 46.8 °F /  8.2 °C 30in /  1015.0hPa Sur 5.2mph /  8.4km/h 8.1mph /  13km/h 89% 0in /  0.0mm
06:39 49.8 °F /  9.9 °C 46.6 °F /  8.1 °C 30in /  1015.0hPa Sur 4.6mph /  7.4km/h 8mph /  12.9km/h 89% 0in /  0.0mm
06:44 49.6 °F /  9.8 °C 46.6 °F /  8.1 °C 30in /  1015.0hPa Sur 4.3mph /  6.9km/h 7mph /  11.3km/h 89% 0in /  0.0mm
06:49 49.6 °F /  9.8 °C 46.4 °F /  8 °C 30in /  1015.0hPa Sur 4.1mph /  6.6km/h 6.9mph /  11.1km/h 89% 0in /  0.0mm
06:54 49.5 °F /  9.7 °C 46.4 °F /  8 °C 30in /  1015.0hPa SSO 4mph /  6.5km/h 7mph /  11.3km/h 89% 0in /  0.0mm
06:59 49.5 °F /  9.7 °C 46.4 °F /  8 °C 30in /  1015.0hPa SSO 4.2mph /  6.7km/h 7.4mph /  11.9km/h 89% 0in /  0.0mm
07:04 49.3 °F /  9.6 °C 46.2 °F /  7.9 °C 30in /  1015.0hPa SSO 4.3mph /  6.9km/h 7.4mph /  11.9km/h 89% 0in /  0.0mm
07:09 49.3 °F /  9.6 °C 46.2 °F /  7.9 °C 30in /  1015.0hPa SSO 4.6mph /  7.4km/h 9.2mph /  14.8km/h 89% 0in /  0.0mm
07:14 49.3 °F /  9.6 °C 46.2 °F /  7.9 °C 30in /  1015.0hPa SSO 4.7mph /  7.6km/h 6.9mph /  11.1km/h 89% 0in /  0.0mm
07:19 49.3 °F /  9.6 °C 46 °F /  7.8 °C 30in /  1015.0hPa Sur 5mph /  8.1km/h 8.1mph /  13km/h 88.3% 0in /  0.0mm
07:24 49.1 °F /  9.5 °C 45.9 °F /  7.7 °C 30in /  1015.0hPa Sur 5.2mph /  8.4km/h 9.2mph /  14.8km/h 88% 0in /  0.0mm
07:29 49.1 °F /  9.5 °C 45.7 °F /  7.6 °C 30in /  1015.2hPa Sur 5.3mph /  8.6km/h 9.2mph /  14.8km/h 88% 0in /  0.0mm
07:34 49.1 °F /  9.5 °C 45.7 °F /  7.6 °C 30in /  1015.2hPa SSO 5.4mph /  8.7km/h 10.4mph /  16.7km/h 88% 0in /  0.0mm
07:39 49.1 °F /  9.5 °C 45.3 °F /  7.4 °C 30in /  1015.2hPa Sur 5.8mph /  9.3km/h 10.4mph /  16.7km/h 87% 0in /  0.0mm
07:44 49.1 °F /  9.5 °C 45.3 °F /  7.4 °C 30in /  1015.3hPa SSO 6.2mph /  10km/h 11.5mph /  18.5km/h 87% 0in /  0.0mm
07:49 49.3 °F /  9.6 °C 45.5 °F /  7.5 °C 30in /  1015.3hPa SSO 7.1mph /  11.4km/h 12mph /  19.3km/h 86.5% 0in /  0.0mm
07:54 49.3 °F /  9.6 °C 45.3 °F /  7.4 °C 30in /  1015.3hPa SSO 7.4mph /  11.9km/h 12mph /  19.3km/h 86% 0in /  0.0mm
07:59 49.5 °F /  9.7 °C 45.3 °F /  7.4 °C 30in /  1015.3hPa SSO 7.1mph /  11.4km/h 10mph /  16.1km/h 86% 0in /  0.0mm
08:04 49.5 °F /  9.7 °C 45.3 °F /  7.4 °C 30in /  1015.3hPa SSO 6.9mph /  11.1km/h 9mph /  14.5km/h 85.8% 0in /  0.0mm
08:09 49.5 °F /  9.7 °C 45.1 °F /  7.3 °C 30in /  1015.3hPa SSO 5.7mph /  9.1km/h 9mph /  14.5km/h 85% 0in /  0.0mm
08:14 49.6 °F /  9.8 °C 45.3 °F /  7.4 °C 30in /  1015.4hPa SO 5.2mph /  8.4km/h 8mph /  12.9km/h 85% 0in /  0.0mm
08:19 49.6 °F /  9.8 °C 45.3 °F /  7.4 °C 30in /  1015.4hPa Sur 4.6mph /  7.4km/h 7mph /  11.3km/h 85% 0in /  0.0mm
08:24 49.6 °F /  9.8 °C 45.3 °F /  7.4 °C 30in /  1015.4hPa SSO 4.3mph /  7km/h 6mph /  9.7km/h 85% 0in /  0.0mm
08:29 49.8 °F /  9.9 °C 45.5 °F /  7.5 °C 30in /  1015.5hPa SSO 3.4mph /  5.4km/h 6.9mph /  11.1km/h 85% 0in /  0.0mm
08:34 50 °F /  10 °C 45.7 °F /  7.6 °C 30in /  1015.5hPa SSO 3.1mph /  5km/h 7mph /  11.3km/h 84.8% 0in /  0.0mm
08:39 50.2 °F /  10.1 °C 45.5 °F /  7.5 °C 30in /  1015.5hPa SSO 3.8mph /  6.1km/h 7mph /  11.3km/h 84% 0in /  0.0mm
08:44 50.4 °F /  10.2 °C 45.7 °F /  7.6 °C 30in /  1015.5hPa SSO 4mph /  6.5km/h 9.2mph /  14.8km/h 83.7% 0in /  0.0mm
08:49 50.5 °F /  10.3 °C 45.7 °F /  7.6 °C 30in /  1015.4hPa SSO 4.3mph /  7km/h 8.5mph /  13.7km/h 83% 0in /  0.0mm
08:54 50.7 °F /  10.4 °C 45.7 °F /  7.6 °C 30in /  1015.4hPa SO 4.7mph /  7.6km/h 9mph /  14.5km/h 82.5% 0in /  0.0mm
08:59 51.1 °F /  10.6 °C 45.9 °F /  7.7 °C 30in /  1015.4hPa SSO 4.5mph /  7.2km/h 10.2mph /  16.4km/h 82% 0in /  0.0mm
09:04 51.4 °F /  10.8 °C 45.9 °F /  7.7 °C 30in /  1015.4hPa SSO 4.3mph /  6.9km/h 10.4mph /  16.7km/h 81.2% 0in /  0.0mm
09:09 51.6 °F /  10.9 °C 46 °F /  7.8 °C 30in /  1015.4hPa SSO 4.3mph /  6.9km/h 10mph /  16.1km/h 81% 0in /  0.0mm
09:14 51.8 °F /  11 °C 45.9 °F /  7.7 °C 30in /  1015.6hPa SSO 4.3mph /  6.9km/h 8.1mph /  13km/h 80% 0in /  0.0mm
09:19 52 °F /  11.1 °C 46 °F /  7.8 °C 30in /  1015.6hPa SSO 4.7mph /  7.5km/h 8.1mph /  13km/h 80% 0in /  0.0mm
09:24 52.3 °F /  11.3 °C 46 °F /  7.8 °C 30in /  1015.6hPa SSO 4.7mph /  7.6km/h 8.1mph /  13km/h 79.5% 0in /  0.0mm
09:29 52.5 °F /  11.4 °C 46.2 °F /  7.9 °C 30in /  1015.7hPa Sur 4.4mph /  7.1km/h 9.7mph /  15.6km/h 79.3% 0in /  0.0mm
09:34 52.7 °F /  11.5 °C 46 °F /  7.8 °C 30in /  1015.7hPa SSO 4.3mph /  6.9km/h 8.5mph /  13.7km/h 78.2% 0in /  0.0mm
09:39 52.9 °F /  11.6 °C 46.2 °F /  7.9 °C 30in /  1015.7hPa SSO 5.1mph /  8.2km/h 8.1mph /  13km/h 78% 0in /  0.0mm
09:44 53.2 °F /  11.8 °C 46.4 °F /  8 °C 30in /  1015.7hPa Sur 5.4mph /  8.7km/h 8mph /  12.9km/h 77.6% 0in /  0.0mm
09:47 53.4 °F /  11.9 °C 46.4 °F /  8 °C 30in /  1015.7hPa SSO 5mph /  8.1km/h 7mph /  11.3km/h 77.2% 0in /  0.0mm
09:54 53.8 °F /  12.1 °C 46.4 °F /  8 °C 30in /  1015.7hPa SSO 4mph /  6.5km/h 8.1mph /  13km/h 76% 0in /  0.0mm
09:59 54 °F /  12.2 °C 46.2 °F /  7.9 °C 30in /  1015.7hPa Sur 4.3mph /  6.9km/h 9.2mph /  14.8km/h 75.2% 0in /  0.0mm
10:04 54.1 °F /  12.3 °C 46.2 °F /  7.9 °C 30in /  1015.7hPa SSO 4.3mph /  6.9km/h 9mph /  14.5km/h 74.1% 0in /  0.0mm
10:09 54.3 °F /  12.4 °C 46.2 °F /  7.9 °C 30in /  1015.7hPa SO 4.8mph /  7.8km/h 9mph /  14.5km/h 74% 0in /  0.0mm
10:14 54.7 °F /  12.6 °C 46.6 °F /  8.1 °C 30in /  1015.8hPa SSO 5.2mph /  8.4km/h 8mph /  12.9km/h 74% 0in /  0.0mm
10:19 54.9 °F /  12.7 °C 46.6 °F /  8.1 °C 30in /  1015.8hPa SO 4.8mph /  7.8km/h 9.7mph /  15.6km/h 74% 0in /  0.0mm
10:24 55 °F /  12.8 °C 46.8 °F /  8.2 °C 30in /  1015.8hPa SSO 4.7mph /  7.6km/h 10.4mph /  16.7km/h 73.8% 0in /  0.0mm
10:29 55 °F /  12.8 °C 46.6 °F /  8.1 °C 30in /  1015.9hPa SSO 5mph /  8.1km/h 9mph /  14.5km/h 73% 0in /  0.0mm
10:34 55.4 °F /  13 °C 46.6 °F /  8.1 °C 30in /  1015.9hPa SSO 5.2mph /  8.4km/h 9.2mph /  14.8km/h 72.1% 0in /  0.0mm
10:39 55.8 °F /  13.2 °C 46.8 °F /  8.2 °C 30in /  1015.9hPa SSO 5.3mph /  8.5km/h 9mph /  14.5km/h 72% 0in /  0.0mm
10:44 55.9 °F /  13.3 °C 46.8 °F /  8.2 °C 30in /  1015.9hPa Sur 5.4mph /  8.7km/h 9.7mph /  15.6km/h 71.2% 0in /  0.0mm
10:49 56.3 °F /  13.5 °C 46.9 °F /  8.3 °C 30in /  1015.9hPa SSO 4.5mph /  7.2km/h 11.5mph /  18.5km/h 70.7% 0in /  0.0mm
10:54 56.5 °F /  13.6 °C 46.6 °F /  8.1 °C 30in /  1015.9hPa SSO 4mph /  6.5km/h 12mph /  19.3km/h 69.7% 0in /  0.0mm
10:59 56.5 °F /  13.6 °C 46.2 °F /  7.9 °C 30in /  1016.0hPa OSO 5.7mph /  9.2km/h 9mph /  14.5km/h 68.5% 0in /  0.0mm
11:04 56.7 °F /  13.7 °C 46.2 °F /  7.9 °C 30in /  1016.0hPa SO 5.9mph /  9.5km/h 9.2mph /  14.8km/h 68.3% 0in /  0.0mm
11:09 56.8 °F /  13.8 °C 46.6 °F /  8.1 °C 30in /  1016.0hPa SO 4.4mph /  7.1km/h 6.9mph /  11.1km/h 68.3% 0in /  0.0mm
11:14 57.2 °F /  14 °C 46.6 °F /  8.1 °C 30in /  1016.1hPa SSO 4mph /  6.5km/h 8.5mph /  13.7km/h 67.8% 0in /  0.0mm
11:19 57.6 °F /  14.2 °C 46.8 °F /  8.2 °C 30in /  1016.1hPa SO 4.2mph /  6.7km/h 10.4mph /  16.7km/h 67.1% 0in /  0.0mm
11:24 57.7 °F /  14.3 °C 46.6 °F /  8.1 °C 30in /  1016.1hPa Sur 4.3mph /  6.9km/h 8.5mph /  13.7km/h 66.3% 0in /  0.0mm
11:29 57.9 °F /  14.4 °C 46.6 °F /  8.1 °C 30in /  1016.1hPa OSO 4.3mph /  6.9km/h 9mph /  14.5km/h 66% 0in /  0.0mm
11:34 58.3 °F /  14.6 °C 46.8 °F /  8.2 °C 30in /  1016.1hPa SSO 4.3mph /  6.9km/h 6.9mph /  11.1km/h 65.6% 0in /  0.0mm
11:39 58.6 °F /  14.8 °C 46.6 °F /  8.1 °C 30in /  1016.1hPa Sur 3.8mph /  6.1km/h 8.5mph /  13.7km/h 64% 0in /  0.0mm
11:44 58.8 °F /  14.9 °C 45.7 °F /  7.6 °C 30in /  1016.1hPa SSO 3.6mph /  5.8km/h 9mph /  14.5km/h 61.9% 0in /  0.0mm
11:49 59 °F /  15 °C 45.9 °F /  7.7 °C 30in /  1016.0hPa SSE 4.5mph /  7.2km/h 8.1mph /  13km/h 61.8% 0in /  0.0mm
11:54 59.4 °F /  15.2 °C 46.4 °F /  8 °C 30in /  1016.0hPa Oeste 4.7mph /  7.6km/h 8mph /  12.9km/h 62% 0in /  0.0mm
11:59 59.7 °F /  15.4 °C 45.7 °F /  7.6 °C 30in /  1016.0hPa Sur 4mph /  6.4km/h 8.5mph /  13.7km/h 59.4% 0in /  0.0mm
12:04 60.1 °F /  15.6 °C 44.4 °F /  6.9 °C 30in /  1015.9hPa Sur 3.6mph /  5.8km/h 9.7mph /  15.6km/h 56.2% 0in /  0.0mm
12:09 60.3 °F /  15.7 °C 43 °F /  6.1 °C 30in /  1015.9hPa SE 5.5mph /  8.9km/h 10.4mph /  16.7km/h 52.7% 0in /  0.0mm
12:14 60.4 °F /  15.8 °C 43.5 °F /  6.4 °C 30in /  1015.9hPa SO 5.9mph /  9.5km/h 10mph /  16.1km/h 53.8% 0in /  0.0mm
12:19 60.6 °F /  15.9 °C 43.2 °F /  6.2 °C 30in /  1015.9hPa SO 4.9mph /  7.9km/h 8mph /  12.9km/h 52.5% 0in /  0.0mm
12:24 60.8 °F /  16 °C 43.2 °F /  6.2 °C 30in /  1015.9hPa SO 4.7mph /  7.6km/h 6.9mph /  11.1km/h 52% 0in /  0.0mm
12:29 61.2 °F /  16.2 °C 42.3 °F /  5.7 °C 30in /  1015.9hPa NNO 3.9mph /  6.2km/h 8.1mph /  13km/h 50.1% 0in /  0.0mm
12:34 61.3 °F /  16.3 °C 41.9 °F /  5.5 °C 30in /  1015.8hPa NNE 3.6mph /  5.8km/h 10.4mph /  16.7km/h 48.7% 0in /  0.0mm
12:39 61.3 °F /  16.3 °C 41.2 °F /  5.1 °C 30in /  1015.8hPa NNE 4.3mph /  7km/h 10mph /  16.1km/h 47.5% 0in /  0.0mm
12:44 61.7 °F /  16.5 °C 40.8 °F /  4.9 °C 30in /  1015.8hPa ENE 4.7mph /  7.6km/h 6.2mph /  10km/h 46.3% 0in /  0.0mm
12:49 62.1 °F /  16.7 °C 40.8 °F /  4.9 °C 30in /  1015.7hPa North 4.2mph /  6.8km/h 6.2mph /  10km/h 45.6% 0in /  0.0mm
12:54 62.1 °F /  16.7 °C 40.3 °F /  4.6 °C 30in /  1015.7hPa Este 4mph /  6.5km/h 6mph /  9.7km/h 44.7% 0in /  0.0mm
12:59 62.4 °F /  16.9 °C 40.6 °F /  4.8 °C 30in /  1015.7hPa Este 3.1mph /  5km/h 7.4mph /  11.9km/h 44.9% 0in /  0.0mm
13:04 62.8 °F /  17.1 °C 40.8 °F /  4.9 °C 30in /  1015.6hPa Este 2.9mph /  4.7km/h 5.9mph /  9.5km/h 44.3% 0in /  0.0mm
13:09 62.8 °F /  17.1 °C 40.5 °F /  4.7 °C 30in /  1015.6hPa Sur 3.7mph /  6km/h 8.5mph /  13.7km/h 43.9% 0in /  0.0mm
13:14 62.8 °F /  17.1 °C 40.5 °F /  4.7 °C 30in /  1015.6hPa SSE 4.3mph /  6.9km/h 8.1mph /  13km/h 43.9% 0in /  0.0mm
13:19 63.1 °F /  17.3 °C 40.5 °F /  4.7 °C 30in /  1015.4hPa Sur 4.3mph /  6.9km/h 8mph /  12.9km/h 43.3% 0in /  0.0mm
13:24 63.5 °F /  17.5 °C 40.5 °F /  4.7 °C 30in /  1015.4hPa ESE 4.3mph /  6.9km/h 6.9mph /  11.1km/h 42.9% 0in /  0.0mm
13:29 63.7 °F /  17.6 °C 40.6 °F /  4.8 °C 30in /  1015.4hPa Este 3.9mph /  6.3km/h 7.4mph /  11.9km/h 42.7% 0in /  0.0mm
13:34 63.3 °F /  17.4 °C 39.7 °F /  4.3 °C 30in /  1015.2hPa ENE 3.6mph /  5.8km/h 9.2mph /  14.8km/h 41.9% 0in /  0.0mm
13:39 63.3 °F /  17.4 °C 39.9 °F /  4.4 °C 30in /  1015.2hPa Este 4.5mph /  7.3km/h 9.2mph /  14.8km/h 42% 0in /  0.0mm
13:44 63.7 °F /  17.6 °C 40.1 °F /  4.5 °C 30in /  1015.2hPa Este 5.2mph /  8.4km/h 9.2mph /  14.8km/h 42% 0in /  0.0mm
13:49 63.9 °F /  17.7 °C 40.3 °F /  4.6 °C 30in /  1015.1hPa ENE 4.3mph /  6.9km/h 9.2mph /  14.8km/h 41.8% 0in /  0.0mm
13:54 64 °F /  17.8 °C 39.9 °F /  4.4 °C 30in /  1015.1hPa NNE 4mph /  6.5km/h 9.2mph /  14.8km/h 41.3% 0in /  0.0mm
13:59 63.9 °F /  17.7 °C 39.2 °F /  4 °C 30in /  1015.1hPa ESE 4.5mph /  7.2km/h 9mph /  14.5km/h 40.3% 0in /  0.0mm
14:04 63.9 °F /  17.7 °C 39 °F /  3.9 °C 30in /  1015.0hPa SSE 4.7mph /  7.6km/h 7mph /  11.3km/h 39.9% 0in /  0.0mm
14:09 64 °F /  17.8 °C 39.4 °F /  4.1 °C 30in /  1015.0hPa SE 3.9mph /  6.3km/h 9.2mph /  14.8km/h 40.2% 0in /  0.0mm
14:14 64.2 °F /  17.9 °C 39.4 °F /  4.1 °C 30in /  1015.0hPa Este 3.6mph /  5.8km/h 7.4mph /  11.9km/h 40.1% 0in /  0.0mm
14:18 64.4 °F /  18 °C 39 °F /  3.9 °C 30in /  1014.9hPa ENE 3.8mph /  6.1km/h 9.2mph /  14.8km/h 39.4% 0in /  0.0mm
14:24 64.2 °F /  17.9 °C 37.9 °F /  3.3 °C 30in /  1014.9hPa ESE 4mph /  6.5km/h 9mph /  14.5km/h 37.9% 0in /  0.0mm
14:29 64.6 °F /  18.1 °C 37.8 °F /  3.2 °C 30in /  1014.9hPa ENE 3.5mph /  5.6km/h 5mph /  8km/h 37.2% 0in /  0.0mm
14:34 64.9 °F /  18.3 °C 38.5 °F /  3.6 °C 30in /  1014.8hPa NNE 3.1mph /  5km/h 7.6mph /  12.2km/h 37.7% 0in /  0.0mm
14:39 65.1 °F /  18.4 °C 38.3 °F /  3.5 °C 30in /  1014.8hPa ESE 3mph /  4.8km/h 9mph /  14.5km/h 37.1% 0in /  0.0mm
14:44 65.1 °F /  18.4 °C 37.9 °F /  3.3 °C 30in /  1014.8hPa Este 2.9mph /  4.6km/h 8mph /  12.9km/h 36.5% 0in /  0.0mm
14:49 65.3 °F /  18.5 °C 37.9 °F /  3.3 °C 30in /  1014.6hPa SE 2.9mph /  4.6km/h 6mph /  9.7km/h 36.5% 0in /  0.0mm
14:54 65.7 °F /  18.7 °C 37.9 °F /  3.3 °C 30in /  1014.6hPa NNE 2.9mph /  4.7km/h 6.9mph /  11.1km/h 36.1% 0in /  0.0mm
14:59 65.5 °F /  18.6 °C 38.1 °F /  3.4 °C 30in /  1014.6hPa NE 3mph /  4.8km/h 7mph /  11.3km/h 36.4% 0in /  0.0mm
15:04 65.1 °F /  18.4 °C 38.3 °F /  3.5 °C 30in /  1014.4hPa Este 3.1mph /  5km/h 7mph /  11.3km/h 37% 0in /  0.0mm
15:09 65.5 °F /  18.6 °C 38.1 °F /  3.4 °C 30in /  1014.4hPa ESE 4mph /  6.5km/h 13mph /  20.9km/h 36.5% 0in /  0.0mm
15:14 65.5 °F /  18.6 °C 37.9 °F /  3.3 °C 30in /  1014.4hPa SE 4.3mph /  6.9km/h 13mph /  20.9km/h 36.1% 0in /  0.0mm
15:19 65.5 °F /  18.6 °C 37.8 °F /  3.2 °C 30in /  1014.3hPa Sur 5.8mph /  9.4km/h 13mph /  20.9km/h 36% 0in /  0.0mm
15:24 65.7 °F /  18.7 °C 37.8 °F /  3.2 °C 30in /  1014.3hPa ONO 6.2mph /  10km/h 10mph /  16.1km/h 35.8% 0in /  0.0mm
15:29 66 °F /  18.9 °C 37.4 °F /  3 °C 30in /  1014.3hPa Este 4.4mph /  7.1km/h 10.4mph /  16.7km/h 34.8% 0in /  0.0mm
15:34 66.2 °F /  19 °C 36.7 °F /  2.6 °C 29.9in /  1014.1hPa SE 3.6mph /  5.8km/h 10mph /  16.1km/h 33.7% 0in /  0.0mm
15:39 66.4 °F /  19.1 °C 36.3 °F /  2.4 °C 29.9in /  1014.1hPa ESE 3.2mph /  5.2km/h 10.4mph /  16.7km/h 32.9% 0in /  0.0mm
15:44 66.2 °F /  19 °C 36.1 °F /  2.3 °C 29.9in /  1014.1hPa ESE 3.1mph /  5km/h 11mph /  17.7km/h 33% 0in /  0.0mm
15:49 66 °F /  18.9 °C 36.7 °F /  2.6 °C 29.9in /  1014.1hPa ESE 5.1mph /  8.2km/h 8.1mph /  13km/h 33.7% 0in /  0.0mm
15:54 66.6 °F /  19.2 °C 39.2 °F /  4 °C 29.9in /  1014.1hPa NNE 5.9mph /  9.5km/h 9.7mph /  15.6km/h 36.9% 0in /  0.0mm
15:59 66.4 °F /  19.1 °C 41.2 °F /  5.1 °C 29.9in /  1014.1hPa ESE 4.7mph /  7.5km/h 10mph /  16.1km/h 39.8% 0in /  0.0mm
16:04 66.2 °F /  19 °C 40.3 °F /  4.6 °C 29.9in /  1013.8hPa ESE 4mph /  6.5km/h 10.4mph /  16.7km/h 38.6% 0in /  0.0mm
16:09 66.2 °F /  19 °C 39.7 °F /  4.3 °C 29.9in /  1013.8hPa SE 4.8mph /  7.8km/h 12.3mph /  19.8km/h 37.9% 0in /  0.0mm
16:14 66.6 °F /  19.2 °C 43.5 °F /  6.4 °C 29.9in /  1013.8hPa ESE 5.2mph /  8.4km/h 15mph /  24.1km/h 43.3% 0in /  0.0mm
16:19 66.4 °F /  19.1 °C 44.6 °F /  7 °C 29.9in /  1013.6hPa ESE 7.4mph /  11.9km/h 13.8mph /  22.2km/h 45.3% 0in /  0.0mm
16:24 66.4 °F /  19.1 °C 44.8 °F /  7.1 °C 29.9in /  1013.6hPa ESE 7.6mph /  12.2km/h 15mph /  24.1km/h 45.9% 0in /  0.0mm
16:29 66 °F /  18.9 °C 44.8 °F /  7.1 °C 29.9in /  1013.6hPa SE 8.4mph /  13.5km/h 15mph /  24.1km/h 46.2% 0in /  0.0mm
16:34 65.8 °F /  18.8 °C 45 °F /  7.2 °C 29.9in /  1013.3hPa ESE 8.7mph /  14km/h 17.3mph /  27.8km/h 46.9% 0in /  0.0mm
16:39 65.3 °F /  18.5 °C 45.7 °F /  7.6 °C 29.9in /  1013.3hPa ESE 10.2mph /  16.4km/h 18.5mph /  29.8km/h 49% 0in /  0.0mm
16:44 65.1 °F /  18.4 °C 45.3 °F /  7.4 °C 29.9in /  1013.3hPa ESE 10.7mph /  17.2km/h 19mph /  30.6km/h 48.7% 0in /  0.0mm
16:49 65.7 °F /  18.7 °C 45.5 °F /  7.5 °C 29.9in /  1013.1hPa ESE 10.4mph /  16.7km/h 18.5mph /  29.8km/h 48.2% 0in /  0.0mm
16:54 65.3 °F /  18.5 °C 45 °F /  7.2 °C 29.9in /  1013.1hPa ESE 10.2mph /  16.4km/h 19mph /  30.6km/h 47.9% 0in /  0.0mm
16:59 64.9 °F /  18.3 °C 45.1 °F /  7.3 °C 29.9in /  1013.1hPa ESE 10.2mph /  16.4km/h 20.7mph /  33.3km/h 48.8% 0in /  0.0mm
17:04 64.4 °F /  18 °C 44.8 °F /  7.1 °C 29.9in /  1012.9hPa ESE 10.2mph /  16.4km/h 21mph /  33.8km/h 49% 0in /  0.0mm
17:09 64 °F /  17.8 °C 45 °F /  7.2 °C 29.9in /  1012.9hPa ESE 11.8mph /  19km/h 21mph /  33.8km/h 49.7% 0in /  0.0mm
17:14 63.9 °F /  17.7 °C 45 °F /  7.2 °C 29.9in /  1012.9hPa Este 12.3mph /  19.8km/h 21mph /  33.8km/h 50% 0in /  0.0mm
17:19 63.7 °F /  17.6 °C 45.1 °F /  7.3 °C 29.9in /  1012.8hPa ESE 13.2mph /  21.3km/h 20.7mph /  33.3km/h 50.9% 0in /  0.0mm
17:24 63.5 °F /  17.5 °C 45.1 °F /  7.3 °C 29.9in /  1012.8hPa Este 13.5mph /  21.7km/h 21mph /  33.8km/h 51% 0in /  0.0mm
17:29 63.3 °F /  17.4 °C 45.5 °F /  7.5 °C 29.9in /  1012.8hPa ESE 13.5mph /  21.7km/h 20.7mph /  33.3km/h 52.1% 0in /  0.0mm
17:34 63.5 °F /  17.5 °C 45.5 °F /  7.5 °C 29.9in /  1012.8hPa ESE 13.5mph /  21.7km/h 18.4mph /  29.6km/h 52% 0in /  0.0mm
17:39 63.3 °F /  17.4 °C 45.3 °F /  7.4 °C 29.9in /  1012.8hPa Este 11.5mph /  18.5km/h 18mph /  29km/h 51.6% 0in /  0.0mm
17:44 63.3 °F /  17.4 °C 45.1 °F /  7.3 °C 29.9in /  1013.1hPa ESE 10.2mph /  16.4km/h 17mph /  27.4km/h 51.4% 0in /  0.0mm
17:49 63.3 °F /  17.4 °C 45.3 °F /  7.4 °C 29.9in /  1013.1hPa Este 9.1mph /  14.6km/h 13.8mph /  22.2km/h 51.9% 0in /  0.0mm
17:54 63.1 °F /  17.3 °C 45 °F /  7.2 °C 29.9in /  1013.1hPa ENE 8.7mph /  14km/h 14mph /  22.5km/h 51.6% 0in /  0.0mm
17:59 62.8 °F /  17.1 °C 45 °F /  7.2 °C 29.9in /  1013.2hPa ENE 8mph /  12.9km/h 14mph /  22.5km/h 52% 0in /  0.0mm
18:04 62.8 °F /  17.1 °C 45 °F /  7.2 °C 29.9in /  1013.2hPa ENE 7.6mph /  12.2km/h 13.8mph /  22.2km/h 52.2% 0in /  0.0mm
18:09 62.4 °F /  16.9 °C 45.1 °F /  7.3 °C 29.9in /  1013.2hPa NE 8.4mph /  13.6km/h 15mph /  24.1km/h 53.3% 0in /  0.0mm
18:14 62.8 °F /  17.1 °C 45.9 °F /  7.7 °C 29.9in /  1013.2hPa NE 8.7mph /  14km/h 13mph /  20.9km/h 54% 0in /  0.0mm
18:19 63 °F /  17.2 °C 45.7 °F /  7.6 °C 29.9in /  1013.2hPa NNE 7.8mph /  12.6km/h 13.8mph /  22.2km/h 53.4% 0in /  0.0mm
18:24 62.8 °F /  17.1 °C 46 °F /  7.8 °C 29.9in /  1013.2hPa NE 6.9mph /  11.1km/h 16.1mph /  25.9km/h 54.5% 0in /  0.0mm
18:29 62.2 °F /  16.8 °C 46 °F /  7.8 °C 29.9in /  1013.2hPa ENE 8.7mph /  14km/h 18.4mph /  29.6km/h 55.6% 0in /  0.0mm
18:34 62.1 °F /  16.7 °C 46.4 °F /  8 °C 29.9in /  1013.2hPa Este 9.2mph /  14.8km/h 16.1mph /  25.9km/h 56.3% 0in /  0.0mm
18:39 62.2 °F /  16.8 °C 46.8 °F /  8.2 °C 29.9in /  1013.2hPa Este 8.5mph /  13.7km/h 16mph /  25.7km/h 56.8% 0in /  0.0mm
18:44 62.2 °F /  16.8 °C 46.2 °F /  7.9 °C 29.9in /  1013.2hPa ESE 8.1mph /  13km/h 17.5mph /  28.2km/h 56% 0in /  0.0mm
18:49 62.1 °F /  16.7 °C 45.9 °F /  7.7 °C 29.9in /  1013.1hPa ESE 9.1mph /  14.7km/h 18.5mph /  29.8km/h 55.6% 0in /  0.0mm
18:54 61.5 °F /  16.4 °C 45.7 °F /  7.6 °C 29.9in /  1013.1hPa ESE 9.7mph /  15.6km/h 19mph /  30.6km/h 56% 0in /  0.0mm
18:59 61.2 °F /  16.2 °C 45.1 °F /  7.3 °C 29.9in /  1013.5hPa Este 11.1mph /  17.9km/h 19.7mph /  31.7km/h 55.7% 0in /  0.0mm
19:04 60.8 °F /  16 °C 45 °F /  7.2 °C 29.9in /  1013.5hPa ESE 11.8mph /  19km/h 20.4mph /  32.8km/h 56% 0in /  0.0mm
19:09 60.4 °F /  15.8 °C 44.8 °F /  7.1 °C 29.9in /  1013.5hPa Este 11.5mph /  18.5km/h 20.7mph /  33.3km/h 56% 0in /  0.0mm
19:14 60.3 °F /  15.7 °C 44.6 °F /  7 °C 29.9in /  1013.6hPa Este 11.4mph /  18.3km/h 19.6mph /  31.5km/h 56% 0in /  0.0mm
19:19 60.3 °F /  15.7 °C 45 °F /  7.2 °C 29.9in /  1013.6hPa Este 10.3mph /  16.5km/h 20mph /  32.2km/h 57% 0in /  0.0mm
19:24 60.1 °F /  15.6 °C 44.8 °F /  7.1 °C 29.9in /  1013.6hPa Este 10.2mph /  16.4km/h 16.1mph /  25.9km/h 57% 0in /  0.0mm
19:29 60.1 °F /  15.6 °C 44.8 °F /  7.1 °C 29.9in /  1014.0hPa ENE 9mph /  14.5km/h 12.7mph /  20.4km/h 57% 0in /  0.0mm
19:34 60.1 °F /  15.6 °C 44.6 °F /  7 °C 29.9in /  1014.0hPa NE 8.7mph /  14km/h 10.4mph /  16.7km/h 56.8% 0in /  0.0mm
19:39 60.1 °F /  15.6 °C 44.4 °F /  6.9 °C 29.9in /  1014.0hPa NE 6.9mph /  11.1km/h 10.4mph /  16.7km/h 56.3% 0in /  0.0mm
19:44 59.9 °F /  15.5 °C 44.6 °F /  7 °C 30in /  1014.5hPa NNE 5.9mph /  9.5km/h 13mph /  20.9km/h 57% 0in /  0.0mm
19:49 59.7 °F /  15.4 °C 45.1 °F /  7.3 °C 30in /  1014.5hPa NNE 6.3mph /  10.2km/h 17.3mph /  27.8km/h 58.7% 0in /  0.0mm
19:54 59.4 °F /  15.2 °C 45.1 °F /  7.3 °C 30in /  1014.5hPa NNE 6.4mph /  10.3km/h 15.2mph /  24.5km/h 59.4% 0in /  0.0mm
19:59 59 °F /  15 °C 44.8 °F /  7.1 °C 30in /  1015.6hPa North 9.1mph /  14.7km/h 15mph /  24.1km/h 59.1% 0in /  0.0mm
20:04 58.5 °F /  14.7 °C 45.3 °F /  7.4 °C 30in /  1015.6hPa NNE 10mph /  16.1km/h 21.5mph /  34.6km/h 61.5% 0.01in /  0.2mm
20:09 57.2 °F /  14 °C 46 °F /  7.8 °C 30in /  1015.6hPa NNE 10.1mph /  16.3km/h 21.9mph /  35.2km/h 66% 0.04in /  1.0mm
20:14 55.8 °F /  13.2 °C 46.9 °F /  8.3 °C 30in /  1016.1hPa NNE 10.2mph /  16.4km/h 21mph /  33.8km/h 72.1% 0.04in /  1.0mm
20:19 54.7 °F /  12.6 °C 47.7 °F /  8.7 °C 30in /  1016.1hPa NNE 10.6mph /  17.1km/h 20mph /  32.2km/h 77.1% 0.05in /  1.3mm
20:24 54.1 °F /  12.3 °C 48.2 °F /  9 °C 30in /  1016.1hPa North 10.7mph /  17.2km/h 16mph /  25.7km/h 79.8% 0.05in /  1.3mm
20:29 53.8 °F /  12.1 °C 48.2 °F /  9 °C 30in /  1016.6hPa North 9.3mph /  14.9km/h 21.9mph /  35.2km/h 81.2% 0.05in /  1.3mm
20:34 52.5 °F /  11.4 °C 47.3 °F /  8.5 °C 30in /  1016.6hPa NNE 8.5mph /  13.7km/h 19.7mph /  31.7km/h 82.2% 0.06in /  1.5mm
20:39 52.2 °F /  11.2 °C 47.3 °F /  8.5 °C 30in /  1016.6hPa NE 10.9mph /  17.5km/h 19mph /  30.6km/h 83.4% 0.06in /  1.5mm
20:44 51.6 °F /  10.9 °C 46.9 °F /  8.3 °C 30in /  1016.9hPa NE 11.8mph /  19km/h 17.3mph /  27.8km/h 83.9% 0.06in /  1.5mm
20:49 51.4 °F /  10.8 °C 46.9 °F /  8.3 °C 30in /  1016.9hPa ENE 10.5mph /  16.9km/h 17mph /  27.4km/h 84.4% 0.08in /  2.0mm
20:54 51.4 °F /  10.8 °C 47.1 °F /  8.4 °C 30in /  1016.9hPa ENE 9.7mph /  15.6km/h 15.6mph /  25.1km/h 85% 0.08in /  2.0mm
20:59 51.3 °F /  10.7 °C 47.1 °F /  8.4 °C 30in /  1016.9hPa NE 8.1mph /  13.1km/h 16.1mph /  25.9km/h 85.9% 0.08in /  2.0mm
21:04 50.9 °F /  10.5 °C 46.9 °F /  8.3 °C 30in /  1016.6hPa NE 7.6mph /  12.3km/h 16.1mph /  25.9km/h 86% 0.08in /  2.0mm
21:09 50.9 °F /  10.5 °C 46.9 °F /  8.3 °C 30in /  1016.6hPa NE 7.5mph /  12.1km/h 11.5mph /  18.5km/h 86% 0.07in /  1.8mm
21:14 50.7 °F /  10.4 °C 46.8 °F /  8.2 °C 30in /  1016.7hPa NNE 7.4mph /  11.9km/h 10.7mph /  17.2km/h 86% 0.04in /  1.0mm
21:19 50.7 °F /  10.4 °C 46.8 °F /  8.2 °C 30in /  1016.7hPa NNE 5.6mph /  9km/h 11mph /  17.7km/h 86% 0.04in /  1.0mm
21:24 50.7 °F /  10.4 °C 46.9 °F /  8.3 °C 30in /  1016.7hPa NE 5.2mph /  8.4km/h 10mph /  16.1km/h 86.8% 0.03in /  0.7mm
21:29 50.7 °F /  10.4 °C 46.8 °F /  8.2 °C 30in /  1017.1hPa NNE 4.3mph /  7km/h 10.4mph /  16.7km/h 86.5% 0.03in /  0.7mm
21:34 50.7 °F /  10.4 °C 46.9 °F /  8.3 °C 30in /  1017.1hPa NNE 4mph /  6.5km/h 9mph /  14.5km/h 86.9% 0.02in /  0.5mm
21:39 50.7 °F /  10.4 °C 46.9 °F /  8.3 °C 30in /  1017.1hPa NE 4.9mph /  7.9km/h 6.9mph /  11.1km/h 87% 0.03in /  0.8mm
21:44 50.7 °F /  10.4 °C 46.9 °F /  8.3 °C 30in /  1017.2hPa NE 5.2mph /  8.4km/h 5.8mph /  9.3km/h 87% 0.03in /  0.8mm
21:49 50.7 °F /  10.4 °C 46.9 °F /  8.3 °C 30in /  1017.2hPa NE 4.1mph /  6.6km/h 9.2mph /  14.8km/h 87% 0.03in /  0.8mm
21:54 50.7 °F /  10.4 °C 46.9 °F /  8.3 °C 30in /  1017.2hPa NNE 3.1mph /  5km/h 12.7mph /  20.4km/h 87% 0.01in /  0.3mm
21:59 50.7 °F /  10.4 °C 46.9 °F /  8.3 °C 30.1in /  1017.6hPa NNE 5.9mph /  9.5km/h 13mph /  20.9km/h 87% 0.01in /  0.3mm
22:04 50.5 °F /  10.3 °C 46.8 °F /  8.2 °C 30.1in /  1017.6hPa NNE 6.4mph /  10.3km/h 11.5mph /  18.5km/h 87% 0.01in /  0.3mm
22:09 50.4 °F /  10.2 °C 46.6 °F /  8.1 °C 30.1in /  1017.6hPa NNE 6.4mph /  10.3km/h 13.8mph /  22.2km/h 87% 0.01in /  0.3mm
22:14 50.2 °F /  10.1 °C 46.6 °F /  8.1 °C 30.1in /  1017.8hPa NNE 6.4mph /  10.3km/h 14mph /  22.5km/h 87% 0.01in /  0.3mm
22:19 50 °F /  10 °C 46.4 °F /  8 °C 30.1in /  1017.8hPa NNE 6.8mph /  10.9km/h 14mph /  22.5km/h 87.2% 0.01in /  0.3mm
22:24 50 °F /  10 °C 46.4 °F /  8 °C 30.1in /  1017.8hPa NNE 6.9mph /  11.1km/h 13.8mph /  22.2km/h 87.6% 0.01in /  0.3mm
22:29 49.8 °F /  9.9 °C 46.4 °F /  8 °C 30.1in /  1018.0hPa NNE 6.9mph /  11.1km/h 12mph /  19.3km/h 88% 0.01in /  0.3mm
22:34 49.8 °F /  9.9 °C 46.4 °F /  8 °C 30.1in /  1018.0hPa NNE 6.9mph /  11.1km/h 9.7mph /  15.6km/h 88% 0.01in /  0.3mm
22:39 49.6 °F /  9.8 °C 46.6 °F /  8.1 °C 30.1in /  1018.0hPa NNE 6.5mph /  10.4km/h 10.4mph /  16.7km/h 88.9% 0.01in /  0.3mm
22:44 49.6 °F /  9.8 °C 46.6 °F /  8.1 °C 30.1in /  1018.2hPa NNE 6.2mph /  10km/h 9.2mph /  14.8km/h 89% 0in /  0.0mm
22:49 49.6 °F /  9.8 °C 46.6 °F /  8.1 °C 30.1in /  1018.2hPa NNE 6mph /  9.7km/h 9mph /  14.5km/h 89.4% 0in /  0.0mm
22:54 49.5 °F /  9.7 °C 46.6 °F /  8.1 °C 30.1in /  1018.2hPa NNE 5.9mph /  9.5km/h 8.5mph /  13.7km/h 90% 0in /  0.0mm
22:59 49.5 °F /  9.7 °C 46.6 °F /  8.1 °C 30.1in /  1018.4hPa NNE 5.4mph /  8.7km/h 8.1mph /  13km/h 90% 0in /  0.0mm
23:04 49.3 °F /  9.6 °C 46.6 °F /  8.1 °C 30.1in /  1018.4hPa NNE 5.2mph /  8.4km/h 8.1mph /  13km/h 90% 0in /  0.0mm
23:09 49.3 °F /  9.6 °C 46.6 °F /  8.1 °C 30.1in /  1018.4hPa North 4.4mph /  7.1km/h 7mph /  11.3km/h 90% 0in /  0.0mm
23:14 49.3 °F /  9.6 °C 46.6 °F /  8.1 °C 30.1in /  1018.5hPa North 4mph /  6.4km/h 6.9mph /  11.1km/h 90% 0in /  0.0mm
23:19 49.3 °F /  9.6 °C 46.6 °F /  8.1 °C 30.1in /  1018.5hPa NNE 4mph /  6.5km/h 7mph /  11.3km/h 90% 0in /  0.0mm
23:24 49.3 °F /  9.6 °C 46.6 °F /  8.1 °C 30.1in /  1018.5hPa NNE 4mph /  6.5km/h 7mph /  11.3km/h 90% 0in /  0.0mm
23:29 49.5 °F /  9.7 °C 46.6 °F /  8.1 °C 30.1in /  1018.5hPa NNE 3.7mph /  5.9km/h 7mph /  11.3km/h 90% 0in /  0.0mm
23:34 49.3 °F /  9.6 °C 46.6 °F /  8.1 °C 30.1in /  1018.4hPa NNE 3.6mph /  5.8km/h 6.9mph /  11.1km/h 90% 0in /  0.0mm
23:39 49.3 °F /  9.6 °C 46.6 °F /  8.1 °C 30.1in /  1018.4hPa NNE 3.9mph /  6.2km/h 7mph /  11.3km/h 90% 0in /  0.0mm
23:44 49.3 °F /  9.6 °C 46.6 °F /  8.1 °C 30.1in /  1018.4hPa NNE 4mph /  6.4km/h 5.8mph /  9.3km/h 90% 0in /  0.0mm
23:49 49.3 °F /  9.6 °C 46.6 °F /  8.1 °C 30.1in /  1018.4hPa North 3.8mph /  6.1km/h 6mph /  9.7km/h 90% 0in /  0.0mm
23:54 49.3 °F /  9.6 °C 46.6 °F /  8.1 °C 30.1in /  1018.4hPa North 3.6mph /  5.8km/h 4.6mph /  7.4km/h 90% 0in /  0.0mm
23:59 49.3 °F /  9.6 °C 46.6 °F /  8.1 °C 30.1in /  1018.4hPa North 3mph /  4.9km/h 5mph /  8km/h 90% 0in /  0.0mm
Murcia-Puente Tocinos, España
Compliments of Weather Underground - 3 mb

La estación de MeteoMurcia.com, publica sus datos en los siguientes proyectos:

Weather Underground PWS IMURCIAP2 Meteoclimatic www.awekas.at

W3Counter
Web Analytics